Time;durP1;ratioP1;P1;durP2;ratioP2;P2;SDS_P1;SDS_P2;PMS_P1;PMS_P2;Temp;Humidity;BMP_temperature;BMP_pressure;BME280_temperature;BME280_humidity;BME280_pressure;Samples;Min_cycle;Max_cycle;Signal;HPM_P1;HPM_P2
2022/01/10 00:00:32;;;;;;;;;;;13.10;99.90;;;;;;5035993;28;1073;-54
2022/01/10 00:03:01;;;;;;;;;;;13.10;99.90;;;;;;4985457;28;983;-54
2022/01/10 00:05:28;;;;;;;;;;;13.00;99.90;;;;;;5035806;28;845;-54
2022/01/10 00:07:56;;;;;;;;;;;13.00;99.90;;;;;;5035109;28;1333;-54
2022/01/10 00:10:24;;;;;;;;;;;13.10;99.90;;;;;;5035608;28;1903;-54
2022/01/10 00:12:58;;;;;;;;;;;13.00;99.90;;;;;;5034757;28;847;-54
2022/01/10 00:15:26;;;;;;;;;;;13.00;99.90;;;;;;5035458;28;1537;-54
2022/01/10 00:17:56;;;;;;;;;;;13.00;99.90;;;;;;5034272;28;940;-54
2022/01/10 00:20:22;;;;;;;;;;;13.00;99.90;;;;;;5016943;28;1294;-54
2022/01/10 00:22:50;;;;;;;;;;;13.00;99.90;;;;;;5035772;28;909;-55
2022/01/10 00:25:18;;;;;;;;;;;13.00;99.90;;;;;;5001344;28;1208;-54
2022/01/10 00:27:45;;;;;;;;;;;13.00;99.90;;;;;;5035571;28;799;-54
2022/01/10 00:30:13;;;;;;;;;;;13.00;99.90;;;;;;5035473;28;1910;-55
2022/01/10 00:32:41;;;;;;;;;;;12.90;99.90;;;;;;5035555;28;747;-54
2022/01/10 00:35:13;;;;;;;;;;;13.00;99.90;;;;;;5035523;28;809;-54
2022/01/10 00:37:42;;;;;;;;;;;12.90;99.90;;;;;;5035696;28;804;-55
2022/01/10 00:40:09;;;;;;;;;;;13.00;99.90;;;;;;4993618;28;982;-54
2022/01/10 00:42:36;;;;;;;;;;;12.90;99.90;;;;;;4963563;28;1169;-55
2022/01/10 00:45:13;;;;;;;;;;;12.90;99.90;;;;;;4975735;28;944;-54
2022/01/10 00:47:40;;;;;;;;;;;12.90;99.90;;;;;;4987343;28;874;-54
2022/01/10 00:50:06;;;;;;;;;;;12.90;99.90;;;;;;4987937;28;1969;-55
2022/01/10 00:52:35;;;;;;;;;;;12.90;99.90;;;;;;4977959;28;991;-55
2022/01/10 00:55:06;;;;;;;;;;;12.90;99.90;;;;;;4973068;28;1475;-55
2022/01/10 00:57:33;;;;;;;;;;;12.90;99.90;;;;;;4979509;28;932;-55
2022/01/10 01:00:00;;;;;;;;;;;12.80;99.90;;;;;;4962608;28;999;-54
2022/01/10 01:02:31;;;;;;;;;;;12.80;99.90;;;;;;4978647;28;970;-55
2022/01/10 01:05:00;;;;;;;;;;;12.80;99.90;;;;;;4960087;28;1043;-54
2022/01/10 01:07:26;;;;;;;;;;;12.80;99.90;;;;;;4978079;28;850;-54
2022/01/10 01:10:13;;;;;;;;;;;12.80;99.90;;;;;;4978705;28;1906;-45
2022/01/10 01:12:49;;;;;;;;;;;12.80;99.90;;;;;;5038709;28;1075;-45
2022/01/10 01:15:24;;;;;;;;;;;12.80;99.90;;;;;;5038622;28;1117;-44
2022/01/10 01:25:46;;;;;;;;;;;12.70;99.90;;;;;;4993197;28;1450;-44
2022/01/10 01:28:13;;;;;;;;;;;12.70;99.90;;;;;;5003602;28;1041;-45
2022/01/10 01:30:44;;;;;;;;;;;12.70;99.90;;;;;;5038674;28;1956;-44
2022/01/10 01:33:13;;;;;;;;;;;12.70;99.90;;;;;;5018321;28;1435;-44
2022/01/10 01:35:41;;;;;;;;;;;12.70;99.90;;;;;;5036275;28;1009;-44
2022/01/10 01:38:08;;;;;;;;;;;12.70;99.90;;;;;;5038393;28;877;-44
2022/01/10 01:40:47;;;;;;;;;;;12.70;99.90;;;;;;5037766;28;938;-44
2022/01/10 01:43:15;;;;;;;;;;;12.70;99.90;;;;;;5037455;28;1347;-44
2022/01/10 01:45:43;;;;;;;;;;;12.70;99.90;;;;;;5038372;28;1725;-44
2022/01/10 01:48:14;;;;;;;;;;;12.70;99.90;;;;;;5021906;28;808;-44
2022/01/10 01:50:41;;;;;;;;;;;12.60;99.90;;;;;;5019481;28;1914;-44
2022/01/10 01:53:09;;;;;;;;;;;12.60;99.90;;;;;;4969327;28;1282;-44
2022/01/10 01:55:37;;;;;;;;;;;12.60;99.90;;;;;;5036520;28;1517;-45
2022/01/10 01:58:04;;;;;;;;;;;12.60;99.90;;;;;;5036444;28;944;-45
2022/01/10 02:00:30;;;;;;;;;;;12.60;99.90;;;;;;5018431;28;1136;-44
2022/01/10 02:02:56;;;;;;;;;;;12.60;99.90;;;;;;5020491;28;809;-44
2022/01/10 02:05:22;;;;;;;;;;;12.60;99.90;;;;;;5003230;28;999;-44
2022/01/10 02:07:49;;;;;;;;;;;12.60;99.90;;;;;;5037507;28;1133;-44
2022/01/10 02:10:16;;;;;;;;;;;12.50;99.90;;;;;;5037520;28;1910;-44
2022/01/10 02:12:43;;;;;;;;;;;12.50;99.90;;;;;;5017782;28;1393;-44
2022/01/10 02:15:25;;;;;;;;;;;12.50;99.90;;;;;;5037530;28;862;-46
2022/01/10 02:17:55;;;;;;;;;;;12.50;99.90;;;;;;4998580;28;819;-44
2022/01/10 02:20:22;;;;;;;;;;;12.50;99.90;;;;;;4998460;28;977;-46
2022/01/10 02:22:48;;;;;;;;;;;12.50;99.90;;;;;;4996313;28;1613;-44
2022/01/10 02:25:14;;;;;;;;;;;12.50;99.90;;;;;;4998102;28;1047;-44
2022/01/10 02:27:41;;;;;;;;;;;12.50;99.90;;;;;;4998014;28;869;-45
2022/01/10 02:30:07;;;;;;;;;;;12.50;99.90;;;;;;4962084;28;2275;-44
2022/01/10 02:32:34;;;;;;;;;;;12.50;99.90;;;;;;4997922;28;869;-44
2022/01/10 02:35:02;;;;;;;;;;;12.50;99.90;;;;;;4980302;28;1042;-44
2022/01/10 02:37:30;;;;;;;;;;;12.40;99.90;;;;;;4998103;28;1108;-44
2022/01/10 02:39:58;;;;;;;;;;;12.40;99.90;;;;;;4997849;28;881;-44
2022/01/10 02:42:24;;;;;;;;;;;12.40;99.90;;;;;;4997810;28;908;-45
2022/01/10 02:44:50;;;;;;;;;;;12.40;99.90;;;;;;4997547;28;875;-45
2022/01/10 02:47:17;;;;;;;;;;;12.40;99.90;;;;;;4997611;28;913;-44
2022/01/10 02:49:43;;;;;;;;;;;12.40;99.90;;;;;;4980018;28;1903;-44
2022/01/10 02:52:10;;;;;;;;;;;12.40;99.90;;;;;;4997547;28;967;-44
2022/01/10 02:54:36;;;;;;;;;;;12.40;99.90;;;;;;4995829;28;902;-44
2022/01/10 02:57:03;;;;;;;;;;;12.40;99.90;;;;;;4995110;28;867;-45
2022/01/10 02:59:30;;;;;;;;;;;12.30;99.90;;;;;;4979515;28;990;-44
2022/01/10 03:01:56;;;;;;;;;;;12.40;99.90;;;;;;4995809;28;845;-45
2022/01/10 03:04:24;;;;;;;;;;;12.40;99.90;;;;;;4979332;28;1739;-46
2022/01/10 03:06:50;;;;;;;;;;;12.30;99.90;;;;;;4995365;28;855;-44
2022/01/10 03:09:21;;;;;;;;;;;12.30;99.90;;;;;;4995695;28;873;-45
2022/01/10 03:11:47;;;;;;;;;;;12.30;99.90;;;;;;4995314;28;1906;-44
2022/01/10 03:14:13;;;;;;;;;;;12.30;99.90;;;;;;4995533;28;928;-46
2022/01/10 03:16:40;;;;;;;;;;;12.30;99.90;;;;;;5017107;28;1196;-46
2022/01/10 03:19:07;;;;;;;;;;;12.30;99.90;;;;;;5018392;28;943;-45
2022/01/10 03:21:35;;;;;;;;;;;12.30;99.90;;;;;;5034683;28;891;-46
2022/01/10 03:24:02;;;;;;;;;;;12.30;99.90;;;;;;5017875;28;1109;-46
2022/01/10 03:26:29;;;;;;;;;;;12.30;99.90;;;;;;5014529;28;898;-46
2022/01/10 03:28:55;;;;;;;;;;;12.20;99.90;;;;;;5016644;28;766;-46
2022/01/10 03:31:24;;;;;;;;;;;12.30;99.90;;;;;;5016816;28;1906;-46
2022/01/10 03:33:51;;;;;;;;;;;12.30;99.90;;;;;;4982296;28;931;-46
2022/01/10 03:36:19;;;;;;;;;;;12.20;99.90;;;;;;5016892;28;853;-46
2022/01/10 03:38:45;;;;;;;;;;;12.20;99.90;;;;;;5016573;28;785;-46
2022/01/10 03:41:12;;;;;;;;;;;12.20;99.90;;;;;;5014118;28;973;-47
2022/01/10 03:43:38;;;;;;;;;;;12.20;99.90;;;;;;5016463;28;840;-47
2022/01/10 03:46:10;;;;;;;;;;;12.20;99.90;;;;;;5015618;28;828;-46
2022/01/10 03:48:36;;;;;;;;;;;12.20;99.90;;;;;;5016766;28;1101;-46
2022/01/10 03:51:02;;;;;;;;;;;12.20;99.90;;;;;;5015915;28;1903;-46
2022/01/10 03:53:29;;;;;;;;;;;12.20;99.90;;;;;;5016331;28;955;-45
2022/01/10 03:55:55;;;;;;;;;;;12.10;99.90;;;;;;5013592;28;997;-46
2022/01/10 03:58:23;;;;;;;;;;;12.20;99.90;;;;;;5016135;28;777;-46
2022/01/10 04:00:49;;;;;;;;;;;12.10;99.90;;;;;;5016196;28;893;-46
2022/01/10 04:03:18;;;;;;;;;;;12.10;99.90;;;;;;5016098;28;797;-46
2022/01/10 04:05:44;;;;;;;;;;;12.10;99.90;;;;;;5016813;28;978;-46
2022/01/10 04:08:12;;;;;;;;;;;12.10;99.90;;;;;;5016166;28;790;-46
2022/01/10 04:10:43;;;;;;;;;;;12.10;99.90;;;;;;5010874;28;1902;-46
2022/01/10 04:13:09;;;;;;;;;;;12.10;99.90;;;;;;5010936;28;1299;-46
2022/01/10 04:15:37;;;;;;;;;;;12.10;99.90;;;;;;5017217;28;1043;-46
2022/01/10 04:18:03;;;;;;;;;;;12.10;99.90;;;;;;4975307;28;1156;-46
2022/01/10 04:20:30;;;;;;;;;;;12.10;99.90;;;;;;4942913;28;955;-46
2022/01/10 04:22:58;;;;;;;;;;;12.10;99.90;;;;;;4975183;28;845;-46
2022/01/10 04:25:25;;;;;;;;;;;12.00;99.90;;;;;;4937453;28;903;-46
2022/01/10 04:27:51;;;;;;;;;;;12.00;99.90;;;;;;4944463;28;1192;-46
2022/01/10 04:30:18;;;;;;;;;;;12.00;99.90;;;;;;4973172;28;1969;-46
2022/01/10 04:32:45;;;;;;;;;;;12.00;99.90;;;;;;4978631;28;933;-46
2022/01/10 04:35:14;;;;;;;;;;;12.00;99.90;;;;;;4957172;28;956;-46
2022/01/10 04:37:41;;;;;;;;;;;12.00;99.90;;;;;;4978494;28;1026;-46
2022/01/10 04:40:09;;;;;;;;;;;12.00;99.90;;;;;;4946752;28;1081;-46
2022/01/10 04:42:36;;;;;;;;;;;12.00;99.90;;;;;;4978607;28;941;-46
2022/01/10 04:45:09;;;;;;;;;;;12.00;99.90;;;;;;4978814;28;803;-46
2022/01/10 04:47:37;;;;;;;;;;;11.90;99.90;;;;;;4973656;28;1050;-46
2022/01/10 04:53:08;;;;;;;;;;;12.00;99.90;;;;;;4978038;28;968;-46
2022/01/10 04:55:34;;;;;;;;;;;11.90;99.90;;;;;;4978498;28;1058;-46
2022/01/10 04:58:00;;;;;;;;;;;11.90;99.90;;;;;;4978824;28;804;-46
2022/01/10 05:00:26;;;;;;;;;;;11.90;99.90;;;;;;4978652;28;1090;-46
2022/01/10 05:02:53;;;;;;;;;;;11.90;99.90;;;;;;4978539;28;819;-46
2022/01/10 05:05:19;;;;;;;;;;;11.90;99.90;;;;;;4959223;29;974;-46
2022/01/10 05:07:45;;;;;;;;;;;11.90;99.90;;;;;;4977508;28;1104;-46
2022/01/10 05:10:13;;;;;;;;;;;11.90;99.90;;;;;;4978370;28;1911;-46
2022/01/10 05:12:40;;;;;;;;;;;11.90;99.90;;;;;;4942937;28;895;-46
2022/01/10 05:15:07;;;;;;;;;;;11.90;99.90;;;;;;4977631;28;1002;-46
2022/01/10 05:17:34;;;;;;;;;;;11.80;99.90;;;;;;4979026;28;1088;-46
2022/01/10 05:20:01;;;;;;;;;;;11.80;99.90;;;;;;4960616;28;1065;-46
2022/01/10 05:22:28;;;;;;;;;;;11.80;99.90;;;;;;4977905;28;936;-46
2022/01/10 05:24:54;;;;;;;;;;;11.80;99.90;;;;;;4977890;28;1044;-46
2022/01/10 05:27:22;;;;;;;;;;;11.80;99.90;;;;;;4990301;28;1073;-46
2022/01/10 05:29:48;;;;;;;;;;;11.80;99.90;;;;;;4999318;28;1008;-46
2022/01/10 05:32:16;;;;;;;;;;;11.80;99.90;;;;;;4999179;28;1974;-46
2022/01/10 05:34:42;;;;;;;;;;;11.80;99.90;;;;;;4999189;28;865;-46
2022/01/10 05:37:09;;;;;;;;;;;11.80;99.90;;;;;;4998916;28;754;-46
2022/01/10 05:39:35;;;;;;;;;;;11.80;99.90;;;;;;4996842;28;1151;-46
2022/01/10 05:42:01;;;;;;;;;;;11.80;99.90;;;;;;4997224;28;861;-46
2022/01/10 05:44:28;;;;;;;;;;;11.70;99.90;;;;;;4998213;28;1120;-46
2022/01/10 05:46:59;;;;;;;;;;;11.80;99.90;;;;;;4997409;28;972;-46
2022/01/10 05:49:29;;;;;;;;;;;11.80;99.90;;;;;;4999055;28;873;-46
2022/01/10 05:51:56;;;;;;;;;;;11.70;99.90;;;;;;4998474;28;1970;-46
2022/01/10 05:54:24;;;;;;;;;;;11.70;99.90;;;;;;4980918;28;982;-46
2022/01/10 05:56:50;;;;;;;;;;;11.70;99.90;;;;;;4998512;28;849;-46
2022/01/10 05:59:17;;;;;;;;;;;11.70;99.90;;;;;;4980503;28;1314;-46
2022/01/10 06:01:44;;;;;;;;;;;11.70;99.90;;;;;;4998671;28;758;-46
2022/01/10 06:04:11;;;;;;;;;;;11.80;99.90;;;;;;4998792;28;902;-46
2022/01/10 06:06:37;;;;;;;;;;;11.70;99.90;;;;;;4998339;28;1318;-46
2022/01/10 06:09:03;;;;;;;;;;;11.80;99.90;;;;;;4997677;28;1465;-46
2022/01/10 06:11:30;;;;;;;;;;;11.80;99.90;;;;;;4998251;28;1898;-46
2022/01/10 06:13:59;;;;;;;;;;;11.80;99.90;;;;;;4998570;28;873;-46
2022/01/10 06:16:28;;;;;;;;;;;11.90;99.90;;;;;;5011947;28;1093;-46
2022/01/10 06:18:54;;;;;;;;;;;12.00;99.90;;;;;;5019695;28;1024;-46
2022/01/10 06:21:20;;;;;;;;;;;12.00;99.90;;;;;;5037415;28;2016;-46
2022/01/10 06:23:46;;;;;;;;;;;12.10;99.90;;;;;;4996327;28;959;-46
2022/01/10 06:26:13;;;;;;;;;;;12.10;99.90;;;;;;4996406;28;1186;-46
2022/01/10 06:28:40;;;;;;;;;;;12.20;99.90;;;;;;4996281;28;997;-46
2022/01/10 06:31:06;;;;;;;;;;;12.20;99.90;;;;;;4996397;28;1910;-46
2022/01/10 06:33:34;;;;;;;;;;;12.30;99.90;;;;;;4996526;28;857;-46
2022/01/10 06:36:00;;;;;;;;;;;12.40;99.90;;;;;;4994587;28;949;-46
2022/01/10 06:38:27;;;;;;;;;;;12.50;99.90;;;;;;4995737;28;908;-45
2022/01/10 06:40:54;;;;;;;;;;;12.50;99.90;;;;;;4995961;28;908;-46
2022/01/10 06:43:19;;;;;;;;;;;12.60;99.90;;;;;;4996102;28;874;-46
2022/01/10 06:45:47;;;;;;;;;;;12.70;99.90;;;;;;4996037;28;959;-46
2022/01/10 06:48:12;;;;;;;;;;;12.80;99.90;;;;;;4996036;28;870;-46
2022/01/10 06:50:42;;;;;;;;;;;12.80;99.90;;;;;;4995471;28;1963;-46
2022/01/10 06:53:08;;;;;;;;;;;12.90;99.90;;;;;;4995051;28;1029;-46
2022/01/10 06:55:34;;;;;;;;;;;13.00;99.90;;;;;;4986209;28;1057;-46
2022/01/10 06:58:00;;;;;;;;;;;13.00;99.90;;;;;;5036755;28;940;-46
2022/01/10 07:00:26;;;;;;;;;;;13.10;99.90;;;;;;5036467;28;881;-46
2022/01/10 07:02:52;;;;;;;;;;;13.10;99.90;;;;;;5036765;28;911;-44
2022/01/10 07:05:18;;;;;;;;;;;13.20;99.90;;;;;;5036601;28;857;-44
2022/01/10 07:07:45;;;;;;;;;;;13.20;99.90;;;;;;5036398;28;1050;-44
2022/01/10 07:10:11;;;;;;;;;;;13.30;99.90;;;;;;5037013;28;812;-44
2022/01/10 07:12:39;;;;;;;;;;;13.30;99.90;;;;;;5018631;28;891;-44
2022/01/10 07:15:06;;;;;;;;;;;13.40;99.90;;;;;;5035843;28;1375;-44
2022/01/10 07:17:33;;;;;;;;;;;13.40;99.90;;;;;;5034795;28;1004;-44
2022/01/10 07:20:00;;;;;;;;;;;13.50;99.90;;;;;;5036476;28;759;-44
2022/01/10 07:22:27;;;;;;;;;;;13.60;99.90;;;;;;5036268;28;858;-44
2022/01/10 07:24:54;;;;;;;;;;;13.70;99.90;;;;;;5036360;28;907;-44
2022/01/10 07:27:20;;;;;;;;;;;13.70;99.90;;;;;;4990259;28;1252;-44
2022/01/10 07:29:49;;;;;;;;;;;13.80;99.90;;;;;;5035380;28;1347;-44
2022/01/10 07:32:15;;;;;;;;;;;13.90;99.90;;;;;;5002132;28;2009;-44
2022/01/10 07:34:42;;;;;;;;;;;13.90;99.90;;;;;;5036235;28;838;-45
2022/01/10 07:37:08;;;;;;;;;;;14.00;99.90;;;;;;5035620;28;894;-44
2022/01/10 07:39:34;;;;;;;;;;;14.00;99.90;;;;;;5036192;28;802;-44
2022/01/10 07:42:00;;;;;;;;;;;14.10;99.90;;;;;;5034516;28;860;-44
2022/01/10 07:44:27;;;;;;;;;;;14.10;99.90;;;;;;5002039;28;993;-44
2022/01/10 07:46:55;;;;;;;;;;;14.10;99.90;;;;;;5036013;28;881;-44
2022/01/10 07:49:26;;;;;;;;;;;14.20;99.90;;;;;;5001881;28;1392;-44
2022/01/10 07:51:53;;;;;;;;;;;14.20;99.90;;;;;;5035242;28;1970;-44
2022/01/10 07:54:20;;;;;;;;;;;14.20;99.90;;;;;;5035809;28;1357;-45
2022/01/10 07:56:47;;;;;;;;;;;14.20;99.90;;;;;;5035985;28;1241;-45
2022/01/10 07:59:17;;;;;;;;;;;14.20;99.90;;;;;;5035819;28;810;-44
2022/01/10 08:01:45;;;;;;;;;;;14.20;99.90;;;;;;5018140;28;935;-45
2022/01/10 08:04:13;;;;;;;;;;;14.20;99.90;;;;;;5034766;28;1259;-45
2022/01/10 08:06:39;;;;;;;;;;;14.10;99.90;;;;;;5036128;28;1036;-44
2022/01/10 08:09:06;;;;;;;;;;;14.10;99.90;;;;;;5018356;28;1245;-44
2022/01/10 08:11:34;;;;;;;;;;;14.10;99.90;;;;;;5013965;28;1898;-44
2022/01/10 08:14:02;;;;;;;;;;;14.10;99.90;;;;;;5035065;28;915;-44
2022/01/10 08:16:30;;;;;;;;;;;14.10;99.90;;;;;;5034912;28;1034;-44
2022/01/10 08:18:57;;;;;;;;;;;14.00;99.90;;;;;;5001518;28;968;-44
2022/01/10 08:21:24;;;;;;;;;;;14.00;99.90;;;;;;5035914;28;900;-45
2022/01/10 08:23:52;;;;;;;;;;;14.00;99.90;;;;;;5018238;28;954;-45
2022/01/10 08:26:19;;;;;;;;;;;13.90;99.90;;;;;;5017869;28;986;-44
2022/01/10 08:28:46;;;;;;;;;;;13.90;99.90;;;;;;5035564;28;901;-44
2022/01/10 08:31:12;;;;;;;;;;;13.90;99.90;;;;;;5035326;28;2309;-49
2022/01/10 08:33:41;;;;;;;;;;;13.90;99.90;;;;;;5017642;28;1022;-44
2022/01/10 08:36:08;;;;;;;;;;;13.90;99.90;;;;;;5035751;28;798;-44
2022/01/10 08:38:35;;;;;;;;;;;13.90;99.90;;;;;;5035443;28;869;-44
2022/01/10 08:41:01;;;;;;;;;;;13.90;99.90;;;;;;5017581;28;995;-44
2022/01/10 08:43:28;;;;;;;;;;;13.90;99.90;;;;;;5035482;28;829;-44
2022/01/10 08:45:54;;;;;;;;;;;13.90;99.90;;;;;;5017990;28;909;-46
2022/01/10 08:48:20;;;;;;;;;;;14.00;99.90;;;;;;5034694;28;933;-44
2022/01/10 08:50:47;;;;;;;;;;;13.90;99.90;;;;;;5035640;28;1898;-44
2022/01/10 08:53:13;;;;;;;;;;;14.00;99.90;;;;;;5035495;28;826;-44
2022/01/10 08:55:40;;;;;;;;;;;14.00;99.90;;;;;;5035068;28;897;-44
2022/01/10 08:58:06;;;;;;;;;;;14.00;99.90;;;;;;5035031;28;883;-44
2022/01/10 09:00:32;;;;;;;;;;;14.00;99.90;;;;;;5000953;28;933;-44
2022/01/10 09:02:58;;;;;;;;;;;14.10;99.90;;;;;;5000516;28;1028;-44
2022/01/10 09:05:24;;;;;;;;;;;14.00;99.90;;;;;;5016962;28;885;-44
2022/01/10 09:07:52;;;;;;;;;;;14.10;99.90;;;;;;5034682;28;923;-44
2022/01/10 09:10:19;;;;;;;;;;;14.10;99.90;;;;;;5001562;28;1171;-44
2022/01/10 09:12:46;;;;;;;;;;;14.20;99.90;;;;;;5033350;28;1983;-44
2022/01/10 09:15:14;;;;;;;;;;;14.20;99.90;;;;;;5036576;28;786;-44
2022/01/10 09:17:41;;;;;;;;;;;14.20;99.90;;;;;;5020581;28;1058;-44
2022/01/10 09:20:08;;;;;;;;;;;14.20;99.90;;;;;;5020742;28;930;-44
2022/01/10 09:22:38;;;;;;;;;;;14.20;99.90;;;;;;4987767;28;1101;-44
2022/01/10 09:25:05;;;;;;;;;;;14.20;99.90;;;;;;5038286;28;941;-44
2022/01/10 09:27:31;;;;;;;;;;;14.20;99.90;;;;;;5017061;28;1027;-44
2022/01/10 09:29:56;;;;;;;;;;;14.20;99.90;;;;;;5017119;28;1089;-44
2022/01/10 09:32:22;;;;;;;;;;;14.20;99.90;;;;;;4984489;28;1997;-44
2022/01/10 09:34:51;;;;;;;;;;;14.20;99.90;;;;;;5016941;28;805;-44
2022/01/10 09:37:17;;;;;;;;;;;14.20;99.90;;;;;;5013077;28;1181;-44
2022/01/10 09:39:43;;;;;;;;;;;14.10;99.90;;;;;;4984238;28;965;-44
2022/01/10 09:42:12;;;;;;;;;;;14.10;99.90;;;;;;5016644;28;858;-44
2022/01/10 09:44:39;;;;;;;;;;;14.10;99.90;;;;;;5017037;28;770;-44
2022/01/10 09:47:06;;;;;;;;;;;14.10;99.90;;;;;;5016928;28;962;-44
2022/01/10 09:49:32;;;;;;;;;;;14.10;99.90;;;;;;5016735;28;905;-44
2022/01/10 09:51:58;;;;;;;;;;;14.10;99.90;;;;;;5016681;28;1919;-44
2022/01/10 09:54:25;;;;;;;;;;;14.10;99.90;;;;;;5016672;28;759;-44
2022/01/10 09:56:51;;;;;;;;;;;14.10;99.90;;;;;;5013346;28;1318;-44
2022/01/10 09:59:18;;;;;;;;;;;14.10;99.90;;;;;;5034147;28;814;-44
2022/01/10 10:01:49;;;;;;;;;;;14.00;99.90;;;;;;5038097;28;817;-44
2022/01/10 10:04:17;;;;;;;;;;;14.00;99.90;;;;;;5037842;28;1559;-44
2022/01/10 10:06:44;;;;;;;;;;;14.00;99.90;;;;;;5037977;28;829;-44
2022/01/10 10:09:12;;;;;;;;;;;14.00;99.90;;;;;;5037632;28;1066;-44
2022/01/10 10:11:46;;;;;;;;;;;14.00;99.90;;;;;;5003141;28;1922;-44
2022/01/10 10:14:15;;;;;;;;;;;14.10;99.90;;;;;;5037551;28;1375;-44
2022/01/10 10:16:54;;;;;;;;;;;14.10;99.90;;;;;;5037110;28;1133;-45
2022/01/10 10:19:27;;;;;;;;;;;14.10;99.90;;;;;;5004037;28;1084;-45
2022/01/10 10:21:54;;;;;;;;;;;14.10;99.90;;;;;;5020142;28;1242;-45
2022/01/10 10:24:20;;;;;;;;;;;14.10;99.90;;;;;;5037264;28;932;-44
2022/01/10 10:26:47;;;;;;;;;;;14.20;99.90;;;;;;5037080;28;963;-44
2022/01/10 10:29:19;;;;;;;;;;;14.20;99.90;;;;;;5037696;28;800;-44
2022/01/10 10:31:46;;;;;;;;;;;14.20;99.90;;;;;;5036285;28;1913;-45
2022/01/10 10:34:21;;;;;;;;;;;14.20;99.90;;;;;;5037213;28;1042;-45
2022/01/10 10:37:00;;;;;;;;;;;14.20;99.90;;;;;;5036725;28;1718;-45
2022/01/10 10:39:27;;;;;;;;;;;14.20;99.90;;;;;;5002726;28;977;-45
2022/01/10 10:41:55;;;;;;;;;;;14.20;99.90;;;;;;5001419;28;1007;-44
2022/01/10 10:44:23;;;;;;;;;;;14.20;99.90;;;;;;5036947;28;856;-44
2022/01/10 10:46:50;;;;;;;;;;;14.20;99.90;;;;;;5036967;28;897;-44
2022/01/10 10:49:19;;;;;;;;;;;14.20;99.90;;;;;;5036919;28;1000;-44
2022/01/10 10:51:50;;;;;;;;;;;14.20;99.90;;;;;;5036800;28;1985;-44
2022/01/10 10:54:17;;;;;;;;;;;14.10;99.90;;;;;;5037186;28;994;-44
2022/01/10 10:56:45;;;;;;;;;;;14.10;99.90;;;;;;5019486;28;834;-44
2022/01/10 10:59:12;;;;;;;;;;;14.10;99.90;;;;;;5002433;28;1014;-44
2022/01/10 11:01:40;;;;;;;;;;;14.10;99.90;;;;;;5036784;28;883;-44
2022/01/10 11:04:09;;;;;;;;;;;14.10;99.90;;;;;;5019443;28;992;-44
2022/01/10 11:06:36;;;;;;;;;;;14.10;99.90;;;;;;4970089;28;914;-44
2022/01/10 11:09:06;;;;;;;;;;;14.10;99.90;;;;;;5002238;28;999;-54
2022/01/10 11:11:32;;;;;;;;;;;14.10;99.90;;;;;;5032372;28;1973;-54
2022/01/10 11:14:00;;;;;;;;;;;14.10;99.90;;;;;;5018755;28;882;-54
2022/01/10 11:16:27;;;;;;;;;;;14.10;99.90;;;;;;5036494;28;1053;-54
2022/01/10 11:18:55;;;;;;;;;;;14.10;99.90;;;;;;5036399;28;859;-54
2022/01/10 11:21:24;;;;;;;;;;;14.00;99.90;;;;;;5036542;28;850;-54
2022/01/10 11:23:50;;;;;;;;;;;14.00;99.90;;;;;;5018626;28;1003;-54
2022/01/10 11:26:17;;;;;;;;;;;14.00;99.90;;;;;;5036000;28;894;-54
2022/01/10 11:28:52;;;;;;;;;;;14.00;99.90;;;;;;5034642;28;949;-53
2022/01/10 11:31:20;;;;;;;;;;;14.00;99.90;;;;;;5036297;28;1910;-54
2022/01/10 11:33:47;;;;;;;;;;;14.00;99.90;;;;;;5036098;28;940;-54
2022/01/10 11:36:15;;;;;;;;;;;14.00;99.90;;;;;;5041794;28;1030;-54
2022/01/10 11:38:59;;;;;;;;;;;14.00;99.90;;;;;;4993361;28;1131;-53
2022/01/10 11:41:44;;;;;;;;;;;14.00;99.90;;;;;;4993010;28;1021;-54
2022/01/10 11:44:12;;;;;;;;;;;14.00;99.90;;;;;;4978831;28;1423;-53
2022/01/10 11:46:42;;;;;;;;;;;14.00;99.90;;;;;;4963234;28;1160;-54
2022/01/10 11:49:30;;;;;;;;;;;14.00;99.90;;;;;;4990870;28;889;-54
2022/01/10 11:52:01;;;;;;;;;;;14.00;99.90;;;;;;4955505;29;1906;-54
2022/01/10 11:54:35;;;;;;;;;;;14.00;99.90;;;;;;4955444;29;1299;-53
2022/01/10 11:57:22;;;;;;;;;;;14.00;99.90;;;;;;4956181;29;1214;-54
2022/01/10 11:59:56;;;;;;;;;;;14.00;99.90;;;;;;4956253;29;856;-54
2022/01/10 12:02:25;;;;;;;;;;;13.90;99.90;;;;;;4956022;29;979;-53
2022/01/10 12:05:02;;;;;;;;;;;14.00;99.90;;;;;;4955042;29;1315;-54
2022/01/10 12:07:29;;;;;;;;;;;14.00;99.90;;;;;;4955980;29;801;-54
2022/01/10 12:09:56;;;;;;;;;;;14.00;99.90;;;;;;4978327;28;943;-54
2022/01/10 12:12:25;;;;;;;;;;;14.00;99.90;;;;;;4994609;28;1918;-54
2022/01/10 12:14:52;;;;;;;;;;;14.00;99.90;;;;;;4978625;28;901;-53
2022/01/10 12:17:19;;;;;;;;;;;14.00;99.90;;;;;;4994373;28;1178;-54
2022/01/10 12:19:46;;;;;;;;;;;14.00;99.90;;;;;;4994628;28;1060;-54
2022/01/10 12:22:13;;;;;;;;;;;14.00;99.90;;;;;;4994572;28;1077;-54
2022/01/10 12:24:41;;;;;;;;;;;14.00;99.90;;;;;;4994447;28;802;-54
2022/01/10 12:27:09;;;;;;;;;;;14.00;99.90;;;;;;4978525;28;778;-54
2022/01/10 12:29:35;;;;;;;;;;;14.00;99.90;;;;;;5024375;28;949;-54
2022/01/10 12:32:04;;;;;;;;;;;14.00;99.90;;;;;;5018202;28;1910;-54
2022/01/10 12:34:31;;;;;;;;;;;14.10;99.90;;;;;;4969345;28;1059;-55
2022/01/10 12:36:58;;;;;;;;;;;14.10;99.90;;;;;;5035733;28;938;-55
2022/01/10 12:39:28;;;;;;;;;;;14.00;99.90;;;;;;5017716;28;894;-54
2022/01/10 12:41:56;;;;;;;;;;;14.00;99.90;;;;;;5033578;28;1436;-54
2022/01/10 12:44:23;;;;;;;;;;;14.10;99.90;;;;;;5017213;28;974;-54
2022/01/10 12:46:50;;;;;;;;;;;14.10;99.90;;;;;;5035260;28;900;-54
2022/01/10 12:49:17;;;;;;;;;;;14.10;99.90;;;;;;5035940;28;1362;-54
2022/01/10 12:52:01;;;;;;;;;;;14.10;99.90;;;;;;5039059;28;1909;-54
2022/01/10 12:54:28;;;;;;;;;;;14.10;99.90;;;;;;5039255;28;1178;-54
2022/01/10 12:56:56;;;;;;;;;;;14.10;99.90;;;;;;5004872;28;954;-54
2022/01/10 12:59:24;;;;;;;;;;;14.10;99.90;;;;;;5039035;28;854;-54
2022/01/10 13:01:52;;;;;;;;;;;14.10;99.90;;;;;;5021509;28;827;-54
2022/01/10 13:04:23;;;;;;;;;;;14.10;99.90;;;;;;5037011;28;1001;-54
2022/01/10 13:06:50;;;;;;;;;;;14.10;99.90;;;;;;5021567;28;766;-54
2022/01/10 13:09:19;;;;;;;;;;;14.10;99.90;;;;;;5020971;28;1020;-54
2022/01/10 13:11:51;;;;;;;;;;;14.10;99.90;;;;;;4988611;28;2038;-54
2022/01/10 13:14:24;;;;;;;;;;;14.20;99.90;;;;;;5006288;28;1414;-54
2022/01/10 13:16:57;;;;;;;;;;;14.20;99.90;;;;;;5038128;28;939;-54
2022/01/10 13:19:29;;;;;;;;;;;14.10;99.90;;;;;;5038801;28;871;-55
2022/01/10 13:21:57;;;;;;;;;;;14.10;99.90;;;;;;5038616;28;814;-54
2022/01/10 13:24:25;;;;;;;;;;;14.10;99.90;;;;;;5038549;28;1078;-54
2022/01/10 13:26:57;;;;;;;;;;;14.10;99.90;;;;;;5038598;28;953;-54
2022/01/10 13:29:37;;;;;;;;;;;14.10;99.90;;;;;;5038246;28;831;-54
2022/01/10 13:32:14;;;;;;;;;;;14.10;99.90;;;;;;5038453;28;1981;-54
2022/01/10 13:34:40;;;;;;;;;;;14.10;99.90;;;;;;5038255;28;819;-54
2022/01/10 13:37:07;;;;;;;;;;;14.10;99.90;;;;;;5004177;28;965;-54
2022/01/10 13:39:33;;;;;;;;;;;14.10;99.90;;;;;;5003952;28;913;-54
2022/01/10 13:42:01;;;;;;;;;;;14.10;99.90;;;;;;5038356;28;910;-55
2022/01/10 13:44:27;;;;;;;;;;;14.10;99.90;;;;;;5040516;28;1135;-55
2022/01/10 13:47:01;;;;;;;;;;;14.00;99.90;;;;;;4987500;28;889;-45
2022/01/10 13:49:33;;;;;;;;;;;14.00;99.90;;;;;;5038104;28;842;-44
2022/01/10 13:52:19;;;;;;;;;;;14.00;99.90;;;;;;5037900;28;1969;-45
2022/01/10 13:54:48;;;;;;;;;;;14.00;99.90;;;;;;5020563;28;1464;-55
2022/01/10 13:57:17;;;;;;;;;;;14.00;99.90;;;;;;5001627;28;1330;-54
2022/01/10 13:59:43;;;;;;;;;;;13.90;99.90;;;;;;5038119;28;925;-54
2022/01/10 14:02:12;;;;;;;;;;;13.90;99.90;;;;;;5036952;28;959;-54
2022/01/10 14:04:38;;;;;;;;;;;13.90;99.90;;;;;;5036256;28;1163;-45
2022/01/10 14:07:07;;;;;;;;;;;13.90;99.90;;;;;;5037371;28;1355;-45
2022/01/10 14:09:33;;;;;;;;;;;13.90;99.90;;;;;;5037746;28;1094;-54
2022/01/10 14:12:00;;;;;;;;;;;13.90;99.90;;;;;;5037400;28;1894;-45
2022/01/10 14:14:29;;;;;;;;;;;13.90;99.90;;;;;;5037541;28;1108;-45
2022/01/10 14:16:57;;;;;;;;;;;13.90;99.90;;;;;;5037535;28;1279;-45
2022/01/10 14:19:24;;;;;;;;;;;13.90;99.90;;;;;;4967822;28;1056;-45
2022/01/10 14:21:51;;;;;;;;;;;13.90;99.90;;;;;;5036941;28;873;-44
2022/01/10 14:24:19;;;;;;;;;;;13.80;99.90;;;;;;5003132;28;1026;-54
2022/01/10 14:26:47;;;;;;;;;;;13.80;99.90;;;;;;5037175;28;862;-54
2022/01/10 14:29:15;;;;;;;;;;;13.80;99.90;;;;;;5037320;28;790;-55
2022/01/10 14:31:41;;;;;;;;;;;13.80;99.90;;;;;;5020070;28;1910;-50
2022/01/10 14:34:07;;;;;;;;;;;13.80;99.90;;;;;;5036690;28;775;-54
2022/01/10 14:36:35;;;;;;;;;;;13.80;99.90;;;;;;5019481;28;826;-45
2022/01/10 14:39:03;;;;;;;;;;;13.80;99.90;;;;;;5036866;28;947;-45
2022/01/10 14:41:30;;;;;;;;;;;13.80;99.90;;;;;;5035358;28;1145;-54
2022/01/10 14:43:57;;;;;;;;;;;13.80;99.90;;;;;;5035725;28;728;-54
2022/01/10 14:46:26;;;;;;;;;;;13.80;99.90;;;;;;5035854;28;846;-54
2022/01/10 14:48:53;;;;;;;;;;;13.80;99.90;;;;;;5035602;28;934;-55
2022/01/10 14:51:20;;;;;;;;;;;13.80;99.90;;;;;;5037022;28;841;-54